Atlantic - Newfoundland: Past 24 Hour Conditions

 

Mary's Harbour

01:30 AM NDT 02 September 2014
This table is a summary of hourly weather conditions for the past 24 hours.
Date / Time
(NDT)
Wind(knots) Conditions Visibility(km) Pressure(kPa) Air tempC) Relative humidity(%) Dew pointC)
02 September 2014
1:30 calm Clear 16 101.7 7 95 6
0:30 S 2 Clear 16 101.8 8 84 6
01 September 2014
23:30 SSE 4 Clear 16 101.8 8 82 6
22:30 SSE 2 Mostly Cloudy 16 101.8 8 85 6
21:30 S 4 Cloudy 16 101.8 8 86 6
20:30 SSE 7 Mainly Clear 16 101.8 9 81 6
19:30 SE 6 Mostly Cloudy 16 101.7 11 74 7
18:30 E 6 Mostly Cloudy 16 101.6 12 67 6
17:30 E 9 Partly Cloudy 16 101.6 13 63 6
16:30 E 8 Partly Cloudy 24 101.6 13 67 7
15:30 E 11 gust 18 Mostly Cloudy 24 101.5 14 64 7
14:30 NNW 7 Partly Cloudy 24 101.4 19 36 3
13:30 NW 10 gust 15 Partly Cloudy 24 101.4 18 43 5
12:30 NNW 11 Mainly Sunny 24 101.4 16 50 6
11:30 NNW 11 Sunny 24 101.4 15 54 6
10:30 NW 9 Sunny 24 101.4 14 57 6
9:30 NW 9 Sunny 24 101.4 13 65 6
8:30 WNW 8 Mainly Sunny 24 101.3 12 67 6
7:30 WNW 2 Sunny 16 101.3 9 76 5
6:30 NW 7 Sunny 16 101.2 8 80 5
5:30 NW 5 Clear 16 101.1 9 79 5
4:30 NW 6 Partly Cloudy 16 101.0 9 81 5
3:30 NW 3 Clear 16 101.0 9 82 6
2:30 WSW 3 Clear 16 100.9 10 83 7
1:30 WNW 3 Partly Cloudy 16 100.9 11 81 8
 
Map of Atlantic - Newfoundland marine weather areas Southwestern Grand Banks - 44138 Banquereau - 44139 Tail of the Bank - 44140 Nickerson Bank - 44251 Northeast Burgeo Bank - 44255 Blanc-Sablon Airport Cap Whittle Chevery Natashquan Airport Heath Point Miscou Island Grand Étang Ingonish Beach North Mountain St.Paul Island J.A. Douglas McCurdy Sydney Airport Charlottetown Airport East Point North Cape Argentia Bonavista Burgeo Cape Race Corner Brook Daniel's Harbour Englee Ferolle Point La Scie Port aux Basques Rocky Harbour Sagona Island St. Anthony Airport St. John's Int'l Airport St. Lawrence Stephenville Airport Twillingate Winterland Wreckhouse Cartwright Airport Mary's Harbour Grates Cove Pool's Island Marticot Island Long Pond Îles de la Madeleine Airport
Legend: buoyBuoy land stationLand Station